createdAt,value
2018-12-30T00:00:05.219Z,5.41
2018-12-30T00:01:05.193Z,5.52
2018-12-30T00:02:05.162Z,5.49
2018-12-30T00:03:05.143Z,5.52
2018-12-30T00:04:05.114Z,5.46
2018-12-30T00:05:05.100Z,5.49
2018-12-30T00:06:05.065Z,5.46
2018-12-30T00:07:05.041Z,5.53
2018-12-30T00:08:05.025Z,5.52
2018-12-30T00:09:04.995Z,5.64
2018-12-30T00:10:04.976Z,5.53
2018-12-30T00:11:04.961Z,5.57
2018-12-30T00:12:04.924Z,5.66
2018-12-30T00:13:04.899Z,5.70
2018-12-30T00:14:04.877Z,5.66
2018-12-30T00:15:04.851Z,5.67
2018-12-30T00:16:04.829Z,5.64
2018-12-30T00:17:04.801Z,5.67
2018-12-30T00:18:04.800Z,5.57
2018-12-30T00:19:04.755Z,5.64
2018-12-30T00:20:04.729Z,5.64
2018-12-30T00:21:08.998Z,5.57
2018-12-30T00:22:04.688Z,5.60
2018-12-30T00:23:04.658Z,5.60
2018-12-30T00:24:04.641Z,5.55
2018-12-30T00:25:04.622Z,5.55
2018-12-30T00:26:04.593Z,5.57
2018-12-30T00:27:04.562Z,5.63
2018-12-30T00:28:04.548Z,5.53
2018-12-30T00:29:04.523Z,5.56
2018-12-30T00:30:04.491Z,5.63
2018-12-30T00:31:04.476Z,5.48
2018-12-30T00:32:04.450Z,5.49
2018-12-30T00:33:04.421Z,5.53
2018-12-30T00:34:04.399Z,5.48
2018-12-30T00:35:04.385Z,5.52
2018-12-30T00:36:04.353Z,5.46
2018-12-30T00:37:04.322Z,5.67
2018-12-30T00:38:04.307Z,5.59
2018-12-30T00:39:04.274Z,5.56
2018-12-30T00:40:04.256Z,5.57
2018-12-30T00:41:04.229Z,5.55
2018-12-30T00:42:04.201Z,5.59
2018-12-30T00:43:04.191Z,5.56
2018-12-30T00:44:04.159Z,5.57
2018-12-30T00:45:04.130Z,5.52
2018-12-30T00:46:04.118Z,5.67
2018-12-30T00:47:04.084Z,5.66
2018-12-30T00:48:04.065Z,5.63
2018-12-30T00:49:04.034Z,5.59
2018-12-30T00:50:04.015Z,5.56
2018-12-30T00:51:03.987Z,5.57
2018-12-30T00:52:03.974Z,5.59
2018-12-30T00:53:03.942Z,5.64
2018-12-30T00:54:03.920Z,5.59
2018-12-30T00:55:03.894Z,5.66
2018-12-30T00:56:03.873Z,5.53
2018-12-30T00:57:03.845Z,5.68
2018-12-30T00:58:03.826Z,5.68
2018-12-30T00:59:03.802Z,5.63
2018-12-30T01:00:03.771Z,5.68
2018-12-30T01:01:03.758Z,5.68
2018-12-30T01:02:03.740Z,5.66
2018-12-30T01:03:03.700Z,5.68
2018-12-30T01:04:03.684Z,5.64
2018-12-30T01:05:03.660Z,5.63
2018-12-30T01:06:03.633Z,5.67
2018-12-30T01:07:03.615Z,5.66
2018-12-30T01:08:03.582Z,5.68
2018-12-30T01:09:03.563Z,5.74
2018-12-30T01:10:03.539Z,5.68
2018-12-30T01:11:03.506Z,5.73
2018-12-30T01:12:03.490Z,5.73
2018-12-30T01:13:03.470Z,5.73
2018-12-30T01:14:03.434Z,5.78
2018-12-30T01:15:03.412Z,5.75
2018-12-30T01:16:03.389Z,5.83
2018-12-30T01:17:03.364Z,5.82
2018-12-30T01:18:03.341Z,5.83
2018-12-30T01:19:03.319Z,5.82
2018-12-30T01:20:03.290Z,5.71
2018-12-30T01:21:03.271Z,5.73
2018-12-30T01:22:03.251Z,5.85
2018-12-30T01:23:03.234Z,5.81
2018-12-30T01:24:03.210Z,5.81
2018-12-30T01:25:03.173Z,5.83
2018-12-30T01:26:03.152Z,5.85
2018-12-30T01:27:03.125Z,5.88
2018-12-30T01:28:03.110Z,5.86
2018-12-30T01:29:03.083Z,5.91
2018-12-30T01:30:03.067Z,5.83
2018-12-30T01:31:03.032Z,5.81
2018-12-30T01:32:03.041Z,5.88
2018-12-30T01:33:02.983Z,6.00
2018-12-30T01:34:02.967Z,6.00
2018-12-30T01:35:02.935Z,6.00
2018-12-30T01:36:02.913Z,5.92
2018-12-30T01:37:02.894Z,6.01
2018-12-30T01:38:02.864Z,5.93
2018-12-30T01:39:02.838Z,5.88
2018-12-30T01:40:02.819Z,5.92
2018-12-30T01:41:02.798Z,5.86
2018-12-30T01:42:02.768Z,5.89
2018-12-30T01:43:02.752Z,6.03
2018-12-30T01:44:02.727Z,5.95
2018-12-30T01:45:02.698Z,5.93
2018-12-30T01:46:02.675Z,6.00
2018-12-30T01:47:02.659Z,5.96
2018-12-30T01:48:02.634Z,6.03
2018-12-30T01:49:02.602Z,6.01
2018-12-30T01:50:02.579Z,6.04
2018-12-30T01:51:02.553Z,6.03
2018-12-30T01:52:02.532Z,6.07
2018-12-30T01:53:02.507Z,6.04
2018-12-30T01:54:02.483Z,5.96
2018-12-30T01:55:02.457Z,6.03
2018-12-30T01:56:02.438Z,6.03
2018-12-30T01:57:02.412Z,6.01
2018-12-30T01:58:02.394Z,6.09
2018-12-30T01:59:02.373Z,6.01
2018-12-30T02:00:02.348Z,6.13
2018-12-30T02:01:02.319Z,6.09
2018-12-30T02:02:02.310Z,6.11
2018-12-30T02:03:02.276Z,6.06
2018-12-30T02:04:02.251Z,6.01
2018-12-30T02:05:02.228Z,6.04
2018-12-30T02:06:02.203Z,6.07
2018-12-30T02:07:02.180Z,6.14
2018-12-30T02:08:02.154Z,6.13
2018-12-30T02:09:02.130Z,6.25
2018-12-30T02:10:02.101Z,6.19
2018-12-30T02:11:02.093Z,6.25
2018-12-30T02:12:02.053Z,6.16
2018-12-30T02:13:02.033Z,6.22
2018-12-30T02:14:02.005Z,6.16
2018-12-30T02:15:01.989Z,6.21
2018-12-30T02:16:01.964Z,6.21
2018-12-30T02:17:01.938Z,6.19
2018-12-30T02:18:01.923Z,6.26
2018-12-30T02:19:01.915Z,6.25
2018-12-30T02:20:01.874Z,6.18
2018-12-30T02:21:01.853Z,6.26
2018-12-30T02:22:01.817Z,6.28
2018-12-30T02:23:01.794Z,6.29
2018-12-30T02:24:01.772Z,6.35
2018-12-30T02:25:01.747Z,6.33
2018-12-30T02:26:01.782Z,6.40
2018-12-30T02:27:01.709Z,6.38
2018-12-30T02:28:01.676Z,6.38
2018-12-30T02:29:01.654Z,6.30
2018-12-30T02:30:01.631Z,6.36
2018-12-30T02:31:01.606Z,6.26
2018-12-30T02:32:01.586Z,6.25
2018-12-30T02:33:01.558Z,6.28
2018-12-30T02:34:01.539Z,6.28
2018-12-30T02:35:01.515Z,6.21
2018-12-30T02:36:01.506Z,6.21
2018-12-30T02:37:01.473Z,6.25
2018-12-30T02:38:01.463Z,6.29
2018-12-30T02:39:01.419Z,6.38
2018-12-30T02:40:01.394Z,6.41
2018-12-30T02:41:01.371Z,6.33
2018-12-30T02:42:01.354Z,6.32
2018-12-30T02:43:01.328Z,6.29
2018-12-30T02:44:01.307Z,6.40
2018-12-30T02:45:01.284Z,6.35
2018-12-30T02:46:01.275Z,6.38
2018-12-30T02:47:01.238Z,6.40
2018-12-30T02:48:01.209Z,6.32
2018-12-30T02:49:01.189Z,6.29
2018-12-30T02:50:01.169Z,6.28
2018-12-30T02:51:01.141Z,6.22
2018-12-30T02:52:01.117Z,6.38
2018-12-30T02:53:01.102Z,6.28
2018-12-30T02:54:01.071Z,6.26
2018-12-30T02:55:01.041Z,6.26
2018-12-30T02:56:01.019Z,6.29
2018-12-30T02:57:00.999Z,6.33
2018-12-30T02:58:00.980Z,6.36
2018-12-30T02:59:00.948Z,6.30
2018-12-30T03:00:00.936Z,6.36
2018-12-30T03:01:00.910Z,6.47
2018-12-30T03:02:00.878Z,6.44
2018-12-30T03:03:00.859Z,6.47
2018-12-30T03:04:00.837Z,6.54
2018-12-30T03:05:00.807Z,6.46
2018-12-30T03:06:00.783Z,6.51
2018-12-30T03:07:00.762Z,6.51
2018-12-30T03:08:00.748Z,6.50
2018-12-30T03:09:00.719Z,6.48
2018-12-30T03:10:00.692Z,6.48
2018-12-30T03:11:00.668Z,6.46
2018-12-30T03:12:00.636Z,6.50
2018-12-30T03:13:00.622Z,6.58
2018-12-30T03:14:00.596Z,6.59
2018-12-30T03:15:00.577Z,6.61
2018-12-30T03:16:00.554Z,6.62
2018-12-30T03:17:00.535Z,6.62
2018-12-30T03:18:00.507Z,6.66
2018-12-30T03:19:00.480Z,6.65
2018-12-30T03:20:00.463Z,6.62
2018-12-30T03:21:00.458Z,6.66
2018-12-30T03:22:00.420Z,6.69
2018-12-30T03:23:00.393Z,6.66
2018-12-30T03:24:00.369Z,6.61
2018-12-30T03:25:00.340Z,6.62
2018-12-30T03:26:00.315Z,6.58
2018-12-30T03:27:00.299Z,6.62
2018-12-30T03:28:00.286Z,6.61
2018-12-30T03:29:00.247Z,6.63
2018-12-30T03:30:00.345Z,6.62
2018-12-30T03:31:00.204Z,6.62
2018-12-30T03:32:00.181Z,6.62
2018-12-30T03:33:00.153Z,6.56
2018-12-30T03:34:00.202Z,6.56
2018-12-30T03:35:00.158Z,6.62
2018-12-30T03:36:00.090Z,6.63
2018-12-30T03:37:00.058Z,6.61
2018-12-30T03:38:00.038Z,6.61
2018-12-30T03:39:00.017Z,6.65
2018-12-30T03:40:00.000Z,6.63
2018-12-30T03:40:59.972Z,6.53
2018-12-30T03:41:59.943Z,6.47
2018-12-30T03:42:59.918Z,6.46
2018-12-30T03:43:59.904Z,6.48
2018-12-30T03:44:59.871Z,6.47
2018-12-30T03:45:59.845Z,6.51
2018-12-30T03:46:59.823Z,6.48
2018-12-30T03:47:59.800Z,6.54
2018-12-30T03:48:59.777Z,6.44
2018-12-30T03:49:59.760Z,6.48
2018-12-30T03:50:59.754Z,6.50
2018-12-30T03:52:07.970Z,6.47
2018-12-30T03:52:59.685Z,6.50
2018-12-30T03:53:59.663Z,6.58
2018-12-30T03:54:59.642Z,6.62
2018-12-30T03:55:59.615Z,6.59
2018-12-30T03:56:59.590Z,6.62
2018-12-30T03:57:59.565Z,6.71
2018-12-30T03:58:59.543Z,6.68
2018-12-30T03:59:59.523Z,6.71
2018-12-30T04:00:59.505Z,6.84
2018-12-30T04:01:59.490Z,6.81
2018-12-30T04:02:59.464Z,6.81
2018-12-30T04:03:59.425Z,6.72
2018-12-30T04:04:59.408Z,6.77
2018-12-30T04:05:59.379Z,6.81
2018-12-30T04:06:59.357Z,6.83
2018-12-30T04:07:59.335Z,6.80
2018-12-30T04:08:59.310Z,6.83
2018-12-30T04:09:59.290Z,6.81
2018-12-30T04:10:59.271Z,6.79
2018-12-30T04:11:59.239Z,6.72
2018-12-30T04:12:59.217Z,6.69
2018-12-30T04:13:59.197Z,6.58
2018-12-30T04:14:59.169Z,6.65
2018-12-30T04:15:59.146Z,6.63
2018-12-30T04:16:59.127Z,6.68
2018-12-30T04:17:59.117Z,6.63
2018-12-30T04:18:59.077Z,6.59
2018-12-30T04:19:59.059Z,6.63
2018-12-30T04:20:59.030Z,6.72
2018-12-30T04:21:59.010Z,6.86
2018-12-30T04:22:58.989Z,6.84
2018-12-30T04:23:58.963Z,6.81
2018-12-30T04:24:58.941Z,6.84
2018-12-30T04:25:58.917Z,6.91
2018-12-30T04:26:58.895Z,6.95
2018-12-30T04:27:58.872Z,6.99
2018-12-30T04:28:58.844Z,6.86
2018-12-30T04:29:58.821Z,6.94
2018-12-30T04:30:58.801Z,6.98
2018-12-30T04:31:58.771Z,6.98
2018-12-30T04:32:58.763Z,6.89
2018-12-30T04:33:58.735Z,6.94
2018-12-30T04:34:58.708Z,6.91
2018-12-30T04:35:58.681Z,6.99
2018-12-30T04:36:58.672Z,6.97
2018-12-30T04:37:58.640Z,6.99
2018-12-30T04:38:58.610Z,7.08
2018-12-30T04:39:58.585Z,7.05
2018-12-30T04:40:58.580Z,6.95
2018-12-30T04:41:58.538Z,7.12
2018-12-30T04:42:58.521Z,7.02
2018-12-30T04:43:58.492Z,7.07
2018-12-30T04:44:58.477Z,6.97
2018-12-30T04:45:58.459Z,6.98
2018-12-30T04:46:58.423Z,7.01
2018-12-30T04:47:58.402Z,6.98
2018-12-30T04:48:58.385Z,7.05
2018-12-30T04:49:58.353Z,6.97
2018-12-30T04:50:58.341Z,6.97
2018-12-30T04:51:58.308Z,6.95
2018-12-30T04:52:58.297Z,6.83
2018-12-30T04:53:58.265Z,6.90
2018-12-30T04:54:58.237Z,6.81
2018-12-30T04:55:58.218Z,6.90
2018-12-30T04:56:58.192Z,6.84
2018-12-30T04:57:58.173Z,6.81
2018-12-30T04:58:58.141Z,6.84
2018-12-30T04:59:58.122Z,6.84
2018-12-30T05:00:58.105Z,6.80
2018-12-30T05:01:58.082Z,6.86
2018-12-30T05:02:58.057Z,6.80
2018-12-30T05:03:58.037Z,6.72
2018-12-30T05:04:58.005Z,6.72
2018-12-30T05:05:57.990Z,6.76
2018-12-30T05:06:57.973Z,6.83
2018-12-30T05:07:57.938Z,6.81
2018-12-30T05:08:57.917Z,6.81
2018-12-30T05:09:57.897Z,6.87
2018-12-30T05:10:57.874Z,6.97
2018-12-30T05:11:57.846Z,6.99
2018-12-30T05:12:57.823Z,6.95
2018-12-30T05:13:57.802Z,6.98
2018-12-30T05:14:57.783Z,6.95
2018-12-30T05:15:57.753Z,7.04
2018-12-30T05:16:57.731Z,7.05
2018-12-30T05:17:57.705Z,7.12
2018-12-30T05:18:57.688Z,7.17
2018-12-30T05:19:57.663Z,7.22
2018-12-30T05:20:57.647Z,7.37
2018-12-30T05:21:57.612Z,7.17
2018-12-30T05:22:57.589Z,7.24
2018-12-30T05:23:57.567Z,7.27
2018-12-30T05:24:57.551Z,7.23
2018-12-30T05:25:57.522Z,7.24
2018-12-30T05:26:57.503Z,7.29
2018-12-30T05:27:57.482Z,7.31
2018-12-30T05:28:57.466Z,7.44
2018-12-30T05:29:57.431Z,7.42
2018-12-30T05:30:57.405Z,7.45
2018-12-30T05:31:57.383Z,7.49
2018-12-30T05:32:57.368Z,7.42
2018-12-30T05:33:57.348Z,7.44
2018-12-30T05:34:57.315Z,7.42
2018-12-30T05:35:57.292Z,7.44
2018-12-30T05:36:57.265Z,7.37
2018-12-30T05:37:57.262Z,7.37
2018-12-30T05:38:57.220Z,7.37
2018-12-30T05:39:57.198Z,7.31
2018-12-30T05:40:57.178Z,7.26
2018-12-30T05:41:57.162Z,7.23
2018-12-30T05:42:57.128Z,7.29
2018-12-30T05:43:57.117Z,7.38
2018-12-30T05:44:57.083Z,7.41
2018-12-30T05:45:57.086Z,7.41
2018-12-30T05:46:57.054Z,7.37
2018-12-30T05:47:57.012Z,7.42
2018-12-30T05:48:56.990Z,7.41
2018-12-30T05:49:56.968Z,7.38
2018-12-30T05:50:56.942Z,7.40
2018-12-30T05:51:56.923Z,7.47
2018-12-30T05:52:56.904Z,7.42
2018-12-30T05:53:56.875Z,7.35
2018-12-30T05:54:56.854Z,7.42
2018-12-30T05:55:56.837Z,7.40
2018-12-30T05:56:56.805Z,7.45
2018-12-30T05:57:56.785Z,7.41
2018-12-30T05:58:56.767Z,7.41
2018-12-30T05:59:56.738Z,7.53
2018-12-30T06:00:56.717Z,7.45
2018-12-30T06:01:56.696Z,7.45
2018-12-30T06:02:56.668Z,7.41
2018-12-30T06:03:56.646Z,7.37
2018-12-30T06:04:56.624Z,7.44
2018-12-30T06:05:56.607Z,7.42
2018-12-30T06:06:56.582Z,7.44
2018-12-30T06:07:56.550Z,7.38
2018-12-30T06:08:56.539Z,7.37
2018-12-30T06:09:56.508Z,7.38
2018-12-30T06:10:56.490Z,7.35
2018-12-30T06:11:56.461Z,7.41
2018-12-30T06:12:56.439Z,7.37
2018-12-30T06:13:56.413Z,7.44
2018-12-30T06:14:56.391Z,7.45
2018-12-30T06:15:56.375Z,7.42
2018-12-30T06:16:56.349Z,7.41
2018-12-30T06:17:56.323Z,7.45
2018-12-30T06:18:56.304Z,7.42
2018-12-30T06:19:56.277Z,7.45
2018-12-30T06:20:56.255Z,7.45
2018-12-30T06:21:56.232Z,7.42
2018-12-30T06:22:56.211Z,7.47
2018-12-30T06:23:56.184Z,7.40
2018-12-30T06:24:56.162Z,7.41
2018-12-30T06:25:56.143Z,7.44
2018-12-30T06:26:56.120Z,7.42
2018-12-30T06:27:56.092Z,7.37
2018-12-30T06:28:56.079Z,7.45
2018-12-30T06:29:56.045Z,7.45
2018-12-30T06:30:56.029Z,7.41
2018-12-30T06:31:56.010Z,7.41
2018-12-30T06:32:55.985Z,7.44
2018-12-30T06:33:55.962Z,7.41
2018-12-30T06:34:55.941Z,7.56
2018-12-30T06:35:55.911Z,7.42
2018-12-30T06:36:55.888Z,7.44
2018-12-30T06:37:55.862Z,7.53
2018-12-30T06:38:55.846Z,7.49
2018-12-30T06:39:55.824Z,7.49
2018-12-30T06:40:55.795Z,7.40
2018-12-30T06:41:55.779Z,7.38
2018-12-30T06:42:55.747Z,7.50
2018-12-30T06:43:55.724Z,7.42
2018-12-30T06:44:55.708Z,7.42
2018-12-30T06:45:55.675Z,7.45
2018-12-30T06:46:55.659Z,7.52
2018-12-30T06:47:55.633Z,7.52
2018-12-30T06:48:55.615Z,7.55
2018-12-30T06:49:55.586Z,7.50
2018-12-30T06:50:55.563Z,7.56
2018-12-30T06:51:55.544Z,7.53
2018-12-30T06:52:57.701Z,7.52
2018-12-30T06:53:55.493Z,7.44
2018-12-30T06:54:55.472Z,7.52
2018-12-30T06:55:55.454Z,7.53
2018-12-30T06:56:55.426Z,7.49
2018-12-30T06:57:55.404Z,7.59
2018-12-30T06:58:55.385Z,7.50
2018-12-30T06:59:55.355Z,7.52
2018-12-30T07:00:55.333Z,7.45
2018-12-30T07:01:55.321Z,7.49
2018-12-30T07:02:55.288Z,7.53
2018-12-30T07:03:55.265Z,7.55
2018-12-30T07:04:55.250Z,7.50
2018-12-30T07:05:55.224Z,7.38
2018-12-30T07:06:55.201Z,7.50
2018-12-30T07:07:55.173Z,7.35
2018-12-30T07:08:55.157Z,7.52
2018-12-30T07:09:55.128Z,7.41
2018-12-30T07:10:55.103Z,7.45
2018-12-30T07:11:55.081Z,7.49
2018-12-30T07:12:55.060Z,7.47
2018-12-30T07:13:55.037Z,7.53
2018-12-30T07:14:55.011Z,7.59
2018-12-30T07:15:54.989Z,7.56
2018-12-30T07:16:54.973Z,7.60
2018-12-30T07:17:54.951Z,7.60
2018-12-30T07:18:54.925Z,7.60
2018-12-30T07:19:54.898Z,7.52
2018-12-30T07:20:54.875Z,7.52
2018-12-30T07:21:54.859Z,7.58
2018-12-30T07:22:54.830Z,7.58
2018-12-30T07:23:54.804Z,7.47
2018-12-30T07:24:54.785Z,7.52
2018-12-30T07:25:54.759Z,7.52
2018-12-30T07:26:54.737Z,7.41
2018-12-30T07:27:54.721Z,7.40
2018-12-30T07:28:54.692Z,7.47
2018-12-30T07:29:54.674Z,7.56
2018-12-30T07:30:54.651Z,7.52
2018-12-30T07:31:54.623Z,7.38
2018-12-30T07:32:54.606Z,7.55
2018-12-30T07:33:54.580Z,7.55
2018-12-30T07:34:54.558Z,7.53
2018-12-30T07:35:54.532Z,7.56
2018-12-30T07:36:54.508Z,7.41
2018-12-30T07:37:54.485Z,7.53
2018-12-30T07:38:54.463Z,7.52
2018-12-30T07:39:54.440Z,7.40
2018-12-30T07:40:54.418Z,7.37
2018-12-30T07:41:54.393Z,7.44
2018-12-30T07:42:54.370Z,7.40
2018-12-30T07:43:54.347Z,7.41
2018-12-30T07:44:54.328Z,7.35
2018-12-30T07:45:54.303Z,7.29
2018-12-30T07:46:54.285Z,7.31
2018-12-30T07:47:54.259Z,7.29
2018-12-30T07:48:54.234Z,7.26
2018-12-30T07:49:54.212Z,7.22
2018-12-30T07:50:54.189Z,7.26
2018-12-30T07:51:54.173Z,7.34
2018-12-30T07:52:54.146Z,7.27
2018-12-30T07:53:54.127Z,7.23
2018-12-30T07:54:54.096Z,7.20
2018-12-30T07:55:54.074Z,7.17
2018-12-30T07:56:54.052Z,7.26
2018-12-30T07:57:54.037Z,7.23
2018-12-30T07:58:54.014Z,7.17
2018-12-30T07:59:53.985Z,7.23
2018-12-30T08:00:53.966Z,7.31
2018-12-30T08:01:53.943Z,7.27
2018-12-30T08:02:53.918Z,7.29
2018-12-30T08:03:53.892Z,7.23
2018-12-30T08:04:53.872Z,7.24
2018-12-30T08:05:53.846Z,7.29
2018-12-30T08:06:53.830Z,7.31
2018-12-30T08:07:53.802Z,7.40
2018-12-30T08:08:53.779Z,7.38
2018-12-30T08:09:53.757Z,7.44
2018-12-30T08:10:53.734Z,7.41
2018-12-30T08:11:53.712Z,7.49
2018-12-30T08:12:53.686Z,7.40
2018-12-30T08:13:53.665Z,7.45
2018-12-30T08:14:53.643Z,7.44
2018-12-30T08:15:53.622Z,7.42
2018-12-30T08:16:53.605Z,7.42
2018-12-30T08:17:53.573Z,7.42
2018-12-30T08:18:53.550Z,7.38
2018-12-30T08:19:53.531Z,7.41
2018-12-30T08:20:53.510Z,7.42
2018-12-30T08:21:53.483Z,7.42
2018-12-30T08:22:53.466Z,7.35
2018-12-30T08:23:53.440Z,7.52
2018-12-30T08:24:53.417Z,7.49
2018-12-30T08:25:53.396Z,7.49
2018-12-30T08:26:53.377Z,7.55
2018-12-30T08:27:53.348Z,7.60
2018-12-30T08:28:53.326Z,7.55
2018-12-30T08:29:53.315Z,7.59
2018-12-30T08:30:53.283Z,7.55
2018-12-30T08:31:53.267Z,7.55
2018-12-30T08:32:53.240Z,7.67
2018-12-30T08:33:53.210Z,7.58
2018-12-30T08:34:53.188Z,7.67
2018-12-30T08:35:53.172Z,7.66
2018-12-30T08:36:53.153Z,7.66
2018-12-30T08:37:53.120Z,7.58
2018-12-30T08:38:53.102Z,7.71
2018-12-30T08:39:53.075Z,7.74
2018-12-30T08:40:53.052Z,7.74
2018-12-30T08:41:53.031Z,7.62
2018-12-30T08:42:53.008Z,7.79
2018-12-30T08:43:52.986Z,7.79
2018-12-30T08:44:52.964Z,7.82
2018-12-30T08:45:52.948Z,7.87
2018-12-30T08:46:52.919Z,7.99
2018-12-30T08:47:52.903Z,8.00
2018-12-30T08:48:52.873Z,7.97
2018-12-30T08:49:52.857Z,8.00
2018-12-30T08:50:52.829Z,8.04
2018-12-30T08:51:52.806Z,8.07
2018-12-30T08:52:52.789Z,8.11
2018-12-30T08:53:52.758Z,8.02
2018-12-30T08:54:52.739Z,7.99
2018-12-30T08:55:52.717Z,8.04
2018-12-30T08:56:52.692Z,7.99
2018-12-30T08:57:52.677Z,8.02
2018-12-30T08:58:52.649Z,8.02
2018-12-30T08:59:52.632Z,7.96
2018-12-30T09:00:52.606Z,8.00
2018-12-30T09:01:52.581Z,8.10
2018-12-30T09:02:52.562Z,8.03
2018-12-30T09:03:52.536Z,8.11
2018-12-30T09:04:52.520Z,8.15
2018-12-30T09:05:52.498Z,8.17
2018-12-30T09:06:52.477Z,8.25
2018-12-30T09:07:52.447Z,8.22
2018-12-30T09:08:52.431Z,8.28
2018-12-30T09:09:52.409Z,8.21
2018-12-30T09:10:52.387Z,8.26
2018-12-30T09:11:52.368Z,8.33
2018-12-30T09:12:52.345Z,8.36
2018-12-30T09:13:52.322Z,8.36
2018-12-30T09:14:52.296Z,8.36
2018-12-30T09:15:52.272Z,8.39
2018-12-30T09:16:52.257Z,8.33
2018-12-30T09:17:52.234Z,8.26
2018-12-30T09:18:52.211Z,8.28
2018-12-30T09:19:52.192Z,8.25
2018-12-30T09:20:52.165Z,8.15
2018-12-30T09:21:52.143Z,8.07
2018-12-30T09:22:52.119Z,8.00
2018-12-30T09:23:52.102Z,8.03
2018-12-30T09:24:52.080Z,8.08
2018-12-30T09:25:52.058Z,7.96
2018-12-30T09:26:52.029Z,7.87
2018-12-30T09:27:52.010Z,7.90
2018-12-30T09:28:51.994Z,7.92
2018-12-30T09:29:51.971Z,7.84
2018-12-30T09:30:51.946Z,7.85
2018-12-30T09:31:51.923Z,7.89
2018-12-30T09:32:51.902Z,7.84
2018-12-30T09:33:51.883Z,7.81
2018-12-30T09:34:51.861Z,7.84
2018-12-30T09:35:51.839Z,7.81
2018-12-30T09:36:53.340Z,7.85
2018-12-30T09:37:51.794Z,7.85
2018-12-30T09:38:51.765Z,7.75
2018-12-30T09:39:51.752Z,7.81
2018-12-30T09:40:51.721Z,7.81
2018-12-30T09:41:51.699Z,7.89
2018-12-30T09:42:51.762Z,7.90
2018-12-30T09:43:51.654Z,7.85
2018-12-30T09:44:51.632Z,7.84
2018-12-30T09:45:51.612Z,7.85
2018-12-30T09:46:51.587Z,7.87
2018-12-30T09:47:51.568Z,7.84
2018-12-30T09:48:51.545Z,7.82
2018-12-30T09:49:51.522Z,7.82
2018-12-30T09:50:51.504Z,7.82
2018-12-30T09:51:51.485Z,7.81
2018-12-30T09:52:51.461Z,7.71
2018-12-30T09:53:51.432Z,7.74
2018-12-30T09:54:51.416Z,7.87
2018-12-30T09:55:51.387Z,7.87
2018-12-30T09:56:51.365Z,7.89
2018-12-30T09:57:51.349Z,8.02
2018-12-30T09:58:51.320Z,8.12
2018-12-30T09:59:51.298Z,8.25
2018-12-30T10:00:51.298Z,8.44
2018-12-30T10:01:51.255Z,8.54
2018-12-30T10:02:51.242Z,8.45
2018-12-30T10:03:51.216Z,8.26
2018-12-30T10:04:51.197Z,8.25
2018-12-30T10:05:51.174Z,8.11
2018-12-30T10:06:51.146Z,8.17
2018-12-30T10:07:51.140Z,8.25
2018-12-30T10:08:51.110Z,8.12
2018-12-30T10:09:51.087Z,8.12
2018-12-30T10:10:51.065Z,8.11
2018-12-30T10:11:51.036Z,8.14
2018-12-30T10:12:51.017Z,8.14
2018-12-30T10:13:50.991Z,8.10
2018-12-30T10:14:50.980Z,8.12
2018-12-30T10:15:50.951Z,8.15
2018-12-30T10:16:50.930Z,8.25
2018-12-30T10:17:50.915Z,8.26
2018-12-30T10:18:50.885Z,8.22
2018-12-30T10:19:50.862Z,8.35
2018-12-30T10:20:50.846Z,8.35
2018-12-30T10:21:50.824Z,8.35
2018-12-30T10:22:50.805Z,8.25
2018-12-30T10:23:53.047Z,8.29
2018-12-30T10:24:50.760Z,8.28
2018-12-30T10:25:50.731Z,8.29
2018-12-30T10:26:50.712Z,8.28
2018-12-30T10:27:50.696Z,8.25
2018-12-30T10:28:50.667Z,8.26
2018-12-30T10:29:50.651Z,8.30
2018-12-30T10:30:50.629Z,8.12
2018-12-30T10:31:50.603Z,8.12
2018-12-30T10:32:50.588Z,8.14
2018-12-30T10:33:50.565Z,8.14
2018-12-30T10:34:50.536Z,8.12
2018-12-30T10:35:50.517Z,8.14
2018-12-30T10:36:50.501Z,8.12
2018-12-30T10:37:50.472Z,8.12
2018-12-30T10:38:50.449Z,8.12
2018-12-30T10:39:50.430Z,8.17
2018-12-30T10:40:50.415Z,8.14
2018-12-30T10:41:50.394Z,8.18
2018-12-30T10:42:50.363Z,8.15
2018-12-30T10:43:50.347Z,8.14
2018-12-30T10:44:50.325Z,8.17
2018-12-30T10:45:50.305Z,8.18
2018-12-30T10:46:50.278Z,8.21
2018-12-30T10:47:50.262Z,8.11
2018-12-30T10:48:50.233Z,8.28
2018-12-30T10:49:50.221Z,8.29
2018-12-30T10:50:50.198Z,8.28
2018-12-30T10:51:50.175Z,8.25
2018-12-30T10:52:50.153Z,8.12
2018-12-30T10:53:50.130Z,8.17
2018-12-30T10:54:50.102Z,8.14
2018-12-30T10:55:50.082Z,8.10
2018-12-30T10:56:50.068Z,8.08
2018-12-30T10:57:50.042Z,8.04
2018-12-30T10:58:50.020Z,8.08
2018-12-30T10:59:49.994Z,8.10
2018-12-30T11:00:49.978Z,8.08
2018-12-30T11:01:49.958Z,8.12
2018-12-30T11:02:49.941Z,8.11
2018-12-30T11:03:49.910Z,8.10
2018-12-30T11:04:49.886Z,8.11
2018-12-30T11:05:49.869Z,8.12
2018-12-30T11:06:49.924Z,8.08
2018-12-30T11:07:49.822Z,8.07
2018-12-30T11:08:49.809Z,8.02
2018-12-30T11:09:49.777Z,7.94
2018-12-30T11:10:49.754Z,8.00
2018-12-30T11:11:49.739Z,8.00
2018-12-30T11:12:49.710Z,8.04
2018-12-30T11:13:49.693Z,8.03
2018-12-30T11:14:49.665Z,7.92
2018-12-30T11:15:49.647Z,7.89
2018-12-30T11:16:49.624Z,7.90
2018-12-30T11:17:49.608Z,7.87
2018-12-30T11:18:49.585Z,7.85
2018-12-30T11:19:49.563Z,7.92
2018-12-30T11:20:49.542Z,7.85
2018-12-30T11:21:49.517Z,7.82
2018-12-30T11:22:49.498Z,7.84
2018-12-30T11:23:49.474Z,7.90
2018-12-30T11:24:49.449Z,7.82
2018-12-30T11:25:49.423Z,7.87
2018-12-30T11:26:49.406Z,7.93
2018-12-30T11:27:49.385Z,7.90
2018-12-30T11:28:49.368Z,7.96
2018-12-30T11:29:49.343Z,7.94
2018-12-30T11:30:49.318Z,7.87
2018-12-30T11:31:49.302Z,7.89
2018-12-30T11:32:49.283Z,7.84
2018-12-30T11:33:49.248Z,7.77
2018-12-30T11:34:49.226Z,7.87
2018-12-30T11:35:49.210Z,7.87
2018-12-30T11:36:49.187Z,7.92
2018-12-30T11:37:49.165Z,7.92
2018-12-30T11:38:49.139Z,7.89
2018-12-30T11:39:49.120Z,8.00
2018-12-30T11:40:49.097Z,8.12
2018-12-30T11:41:49.072Z,8.10
2018-12-30T11:42:49.055Z,8.14
2018-12-30T11:43:49.029Z,8.17
2018-12-30T11:44:49.004Z,8.12
2018-12-30T11:45:48.991Z,8.21
2018-12-30T11:46:48.962Z,8.32
2018-12-30T11:47:48.943Z,8.30
2018-12-30T11:48:48.920Z,8.37
2018-12-30T11:49:48.901Z,8.32
2018-12-30T11:50:48.874Z,8.28
2018-12-30T11:51:48.848Z,8.29
2018-12-30T11:52:48.832Z,8.29
2018-12-30T11:53:48.814Z,8.29
2018-12-30T11:54:48.787Z,8.33
2018-12-30T11:55:48.771Z,8.32
2018-12-30T11:56:48.752Z,8.28
2018-12-30T11:57:48.717Z,8.22
2018-12-30T11:58:48.706Z,8.28
2018-12-30T11:59:48.678Z,8.28
2018-12-30T12:00:48.662Z,8.26
2018-12-30T12:01:48.643Z,8.21
2018-12-30T12:02:48.613Z,8.25
2018-12-30T12:03:48.591Z,8.22
2018-12-30T12:04:48.569Z,8.28
2018-12-30T12:05:48.546Z,8.25
2018-12-30T12:06:48.527Z,8.21
2018-12-30T12:07:48.513Z,8.29
2018-12-30T12:08:48.487Z,8.22
2018-12-30T12:09:48.469Z,8.30
2018-12-30T12:10:48.444Z,8.28
2018-12-30T12:11:48.429Z,8.28
2018-12-30T12:12:49.032Z,8.35
2018-12-30T12:13:48.376Z,8.33
2018-12-30T12:14:48.351Z,8.28
2018-12-30T12:15:48.338Z,8.20
2018-12-30T12:16:48.309Z,8.20
2018-12-30T12:17:48.293Z,8.22
2018-12-30T12:18:48.264Z,8.12
2018-12-30T12:19:48.242Z,8.14
2018-12-30T12:20:48.220Z,8.14
2018-12-30T12:21:48.207Z,8.15
2018-12-30T12:22:48.177Z,8.15
2018-12-30T12:23:48.155Z,8.12
2018-12-30T12:24:48.137Z,8.20
2018-12-30T12:25:48.110Z,8.14
2018-12-30T12:26:48.098Z,8.14
2018-12-30T12:27:48.069Z,8.11
2018-12-30T12:28:48.053Z,8.12
2018-12-30T12:29:48.024Z,8.11
2018-12-30T12:30:48.002Z,8.15
2018-12-30T12:31:47.979Z,8.17
2018-12-30T12:32:47.966Z,8.11
2018-12-30T12:33:47.941Z,8.14
2018-12-30T12:34:47.918Z,8.22
2018-12-30T12:35:47.893Z,8.29
2018-12-30T12:36:47.878Z,8.28
2018-12-30T12:37:47.855Z,8.15
2018-12-30T12:38:47.829Z,8.22
2018-12-30T12:39:47.805Z,8.22
2018-12-30T12:40:47.790Z,8.14
2018-12-30T12:41:47.760Z,8.11
2018-12-30T12:42:47.739Z,8.15
2018-12-30T12:43:47.722Z,8.11
2018-12-30T12:44:47.696Z,8.14
2018-12-30T12:45:47.675Z,8.14
2018-12-30T12:46:47.652Z,8.26
2018-12-30T12:47:47.640Z,8.22
2018-12-30T12:48:47.607Z,8.29
2018-12-30T12:49:47.591Z,8.33
2018-12-30T12:50:47.562Z,8.36
2018-12-30T12:51:47.547Z,8.35
2018-12-30T12:52:47.520Z,8.28
2018-12-30T12:53:47.506Z,8.35
2018-12-30T12:54:47.484Z,8.39
2018-12-30T12:55:47.516Z,8.32
2018-12-30T12:56:47.431Z,8.42
2018-12-30T12:57:47.409Z,8.44
2018-12-30T12:58:47.396Z,8.40
2018-12-30T12:59:47.367Z,8.42
2018-12-30T13:00:47.346Z,8.40
2018-12-30T13:01:47.329Z,8.40
2018-12-30T13:02:47.303Z,8.42
2018-12-30T13:03:47.278Z,8.40
2018-12-30T13:04:47.265Z,8.44
2018-12-30T13:05:47.243Z,8.37
2018-12-30T13:06:47.220Z,8.39
2018-12-30T13:07:47.196Z,8.42
2018-12-30T13:08:47.176Z,8.39
2018-12-30T13:09:47.153Z,8.47
2018-12-30T13:10:47.128Z,8.42
2018-12-30T13:11:47.112Z,8.45
2018-12-30T13:12:47.092Z,8.44
2018-12-30T13:13:47.061Z,8.44
2018-12-30T13:14:47.046Z,8.45
2018-12-30T13:15:47.022Z,8.47
2018-12-30T13:16:47.002Z,8.44
2018-12-30T13:17:46.980Z,8.40